sensor_id;sensor_type;location;lat;lon;timestamp;temperature;humidity
13610;DHT22;6876;50.788;4.940;2023-03-01T00:00:49;-0.20;99.90
13610;DHT22;6876;50.788;4.940;2023-03-01T00:03:37;-0.20;99.90
13610;DHT22;6876;50.788;4.940;2023-03-01T00:06:25;-0.30;99.90
13610;DHT22;6876;50.788;4.940;2023-03-01T00:09:13;-0.30;99.90
13610;DHT22;6876;50.788;4.940;2023-03-01T00:12:02;-0.50;99.90
13610;DHT22;6876;50.788;4.940;2023-03-01T00:14:50;-0.40;99.90
13610;DHT22;6876;50.788;4.940;2023-03-01T00:17:37;-0.50;99.90
13610;DHT22;6876;50.788;4.940;2023-03-01T00:20:25;-0.50;99.90
13610;DHT22;6876;50.788;4.940;2023-03-01T00:23:12;-0.40;99.90
13610;DHT22;6876;50.788;4.940;2023-03-01T00:25:59;-0.40;99.90
13610;DHT22;6876;50.788;4.940;2023-03-01T00:28:48;-0.50;99.90
13610;DHT22;6876;50.788;4.940;2023-03-01T00:31:36;-0.50;99.90
13610;DHT22;6876;50.788;4.940;2023-03-01T00:34:23;-0.50;99.90
13610;DHT22;6876;50.788;4.940;2023-03-01T00:37:10;-0.50;99.90
13610;DHT22;6876;50.788;4.940;2023-03-01T00:39:57;-0.50;99.90
13610;DHT22;6876;50.788;4.940;2023-03-01T00:42:45;-0.60;99.90
13610;DHT22;6876;50.788;4.940;2023-03-01T00:45:34;-0.60;99.90
13610;DHT22;6876;50.788;4.940;2023-03-01T00:48:21;-0.80;99.90
13610;DHT22;6876;50.788;4.940;2023-03-01T00:51:10;-0.80;99.90
13610;DHT22;6876;50.788;4.940;2023-03-01T00:53:59;-0.90;99.90
13610;DHT22;6876;50.788;4.940;2023-03-01T00:56:47;-0.90;99.90
13610;DHT22;6876;50.788;4.940;2023-03-01T00:59:34;-0.70;99.90
13610;DHT22;6876;50.788;4.940;2023-03-01T01:02:23;-0.70;99.90
13610;DHT22;6876;50.788;4.940;2023-03-01T01:05:11;-0.90;99.90
13610;DHT22;6876;50.788;4.940;2023-03-01T01:07:58;-0.60;99.90
13610;DHT22;6876;50.788;4.940;2023-03-01T01:10:46;-0.60;99.90
13610;DHT22;6876;50.788;4.940;2023-03-01T01:13:33;-0.60;99.90
13610;DHT22;6876;50.788;4.940;2023-03-01T01:16:22;-0.60;99.90
13610;DHT22;6876;50.788;4.940;2023-03-01T01:19:11;-0.60;99.90
13610;DHT22;6876;50.788;4.940;2023-03-01T01:21:59;-0.60;99.90
13610;DHT22;6876;50.788;4.940;2023-03-01T01:24:46;-0.60;99.90
13610;DHT22;6876;50.788;4.940;2023-03-01T01:27:34;-0.60;99.90
13610;DHT22;6876;50.788;4.940;2023-03-01T01:30:21;-0.60;99.90
13610;DHT22;6876;50.788;4.940;2023-03-01T01:33:08;-0.60;99.90
13610;DHT22;6876;50.788;4.940;2023-03-01T01:35:57;-0.60;99.90
13610;DHT22;6876;50.788;4.940;2023-03-01T01:38:45;-0.60;99.90
13610;DHT22;6876;50.788;4.940;2023-03-01T01:41:32;-0.70;99.90
13610;DHT22;6876;50.788;4.940;2023-03-01T01:44:21;-0.70;99.90
13610;DHT22;6876;50.788;4.940;2023-03-01T01:47:14;-0.60;99.90
13610;DHT22;6876;50.788;4.940;2023-03-01T01:50:05;-0.60;99.90
13610;DHT22;6876;50.788;4.940;2023-03-01T01:52:54;-0.60;99.90
13610;DHT22;6876;50.788;4.940;2023-03-01T01:55:43;-0.60;99.90
13610;DHT22;6876;50.788;4.940;2023-03-01T01:58:31;-0.70;99.90
13610;DHT22;6876;50.788;4.940;2023-03-01T02:01:20;-0.70;99.90
13610;DHT22;6876;50.788;4.940;2023-03-01T02:04:07;-0.70;99.90
13610;DHT22;6876;50.788;4.940;2023-03-01T02:06:59;-0.80;99.90
13610;DHT22;6876;50.788;4.940;2023-03-01T02:09:51;-0.70;99.90
13610;DHT22;6876;50.788;4.940;2023-03-01T02:12:39;-0.70;99.90
13610;DHT22;6876;50.788;4.940;2023-03-01T02:15:27;-0.70;99.90
13610;DHT22;6876;50.788;4.940;2023-03-01T02:18:21;-0.80;99.90
13610;DHT22;6876;50.788;4.940;2023-03-01T02:21:17;-0.80;99.90
13610;DHT22;6876;50.788;4.940;2023-03-01T02:24:12;-0.90;99.90
13610;DHT22;6876;50.788;4.940;2023-03-01T02:27:03;-0.90;99.90
13610;DHT22;6876;50.788;4.940;2023-03-01T02:29:51;-0.90;99.90
13610;DHT22;6876;50.788;4.940;2023-03-01T02:32:40;-1.00;99.90
13610;DHT22;6876;50.788;4.940;2023-03-01T02:35:29;-1.00;99.90
13610;DHT22;6876;50.788;4.940;2023-03-01T02:38:18;-1.00;99.90
13610;DHT22;6876;50.788;4.940;2023-03-01T02:41:08;-1.10;99.90
13610;DHT22;6876;50.788;4.940;2023-03-01T02:43:55;-1.00;99.90
13610;DHT22;6876;50.788;4.940;2023-03-01T02:46:46;-1.00;99.90
13610;DHT22;6876;50.788;4.940;2023-03-01T02:49:36;-1.00;99.90
13610;DHT22;6876;50.788;4.940;2023-03-01T02:52:33;-1.10;99.90
13610;DHT22;6876;50.788;4.940;2023-03-01T02:55:23;-1.10;99.90
13610;DHT22;6876;50.788;4.940;2023-03-01T02:58:11;-1.20;99.90
13610;DHT22;6876;50.788;4.940;2023-03-01T03:00:58;-1.20;99.90
13610;DHT22;6876;50.788;4.940;2023-03-01T03:03:48;-1.20;99.90
13610;DHT22;6876;50.788;4.940;2023-03-01T03:06:35;-1.20;99.90
13610;DHT22;6876;50.788;4.940;2023-03-01T03:09:23;-1.20;99.90
13610;DHT22;6876;50.788;4.940;2023-03-01T03:12:10;-1.30;99.90
13610;DHT22;6876;50.788;4.940;2023-03-01T03:14:57;-1.30;99.90
13610;DHT22;6876;50.788;4.940;2023-03-01T03:17:45;-1.30;99.90
13610;DHT22;6876;50.788;4.940;2023-03-01T03:20:33;-1.40;99.90
13610;DHT22;6876;50.788;4.940;2023-03-01T03:23:22;-1.40;99.90
13610;DHT22;6876;50.788;4.940;2023-03-01T03:26:09;-1.40;99.90
13610;DHT22;6876;50.788;4.940;2023-03-01T03:29:01;-1.50;99.90
13610;DHT22;6876;50.788;4.940;2023-03-01T03:31:48;-1.40;99.90
13610;DHT22;6876;50.788;4.940;2023-03-01T03:34:35;-1.40;99.90
13610;DHT22;6876;50.788;4.940;2023-03-01T03:37:24;-1.50;99.90
13610;DHT22;6876;50.788;4.940;2023-03-01T03:40:31;-1.50;99.90
13610;DHT22;6876;50.788;4.940;2023-03-01T03:43:20;-1.50;99.90
13610;DHT22;6876;50.788;4.940;2023-03-01T03:46:08;-1.60;99.90
13610;DHT22;6876;50.788;4.940;2023-03-01T03:48:55;-1.60;99.90
13610;DHT22;6876;50.788;4.940;2023-03-01T03:51:45;-1.60;99.90
13610;DHT22;6876;50.788;4.940;2023-03-01T03:54:34;-1.60;99.90
13610;DHT22;6876;50.788;4.940;2023-03-01T03:57:21;-1.60;99.90
13610;DHT22;6876;50.788;4.940;2023-03-01T04:00:11;-1.60;99.90
13610;DHT22;6876;50.788;4.940;2023-03-01T04:02:58;-1.60;99.90
13610;DHT22;6876;50.788;4.940;2023-03-01T04:05:47;-1.60;99.90
13610;DHT22;6876;50.788;4.940;2023-03-01T04:08:36;-1.70;99.90
13610;DHT22;6876;50.788;4.940;2023-03-01T04:11:25;-1.70;99.90
13610;DHT22;6876;50.788;4.940;2023-03-01T04:14:15;-1.70;99.90
13610;DHT22;6876;50.788;4.940;2023-03-01T04:17:02;-1.70;99.90
13610;DHT22;6876;50.788;4.940;2023-03-01T04:19:51;-1.80;99.90
13610;DHT22;6876;50.788;4.940;2023-03-01T04:22:39;-1.80;99.90
13610;DHT22;6876;50.788;4.940;2023-03-01T04:25:27;-1.80;99.90
13610;DHT22;6876;50.788;4.940;2023-03-01T04:28:15;-1.70;99.90
13610;DHT22;6876;50.788;4.940;2023-03-01T04:31:05;-1.80;99.90
13610;DHT22;6876;50.788;4.940;2023-03-01T04:33:58;-1.70;99.90
13610;DHT22;6876;50.788;4.940;2023-03-01T04:36:46;-1.80;99.90
13610;DHT22;6876;50.788;4.940;2023-03-01T04:39:33;-1.80;99.90
13610;DHT22;6876;50.788;4.940;2023-03-01T04:42:31;-1.80;99.90
13610;DHT22;6876;50.788;4.940;2023-03-01T04:45:22;-1.90;99.90
13610;DHT22;6876;50.788;4.940;2023-03-01T04:48:09;-2.00;99.90
13610;DHT22;6876;50.788;4.940;2023-03-01T04:50:58;-2.00;99.90
13610;DHT22;6876;50.788;4.940;2023-03-01T04:53:45;-2.00;99.90
13610;DHT22;6876;50.788;4.940;2023-03-01T04:56:33;-2.10;99.90
13610;DHT22;6876;50.788;4.940;2023-03-01T04:59:20;-2.00;99.90
13610;DHT22;6876;50.788;4.940;2023-03-01T05:02:09;-2.00;99.90
13610;DHT22;6876;50.788;4.940;2023-03-01T05:04:57;-2.00;99.90
13610;DHT22;6876;50.788;4.940;2023-03-01T05:07:44;-2.00;99.90
13610;DHT22;6876;50.788;4.940;2023-03-01T05:10:33;-2.00;99.90
13610;DHT22;6876;50.788;4.940;2023-03-01T05:13:24;-2.10;99.90
13610;DHT22;6876;50.788;4.940;2023-03-01T05:16:12;-2.10;99.90
13610;DHT22;6876;50.788;4.940;2023-03-01T05:19:00;-2.10;99.90
13610;DHT22;6876;50.788;4.940;2023-03-01T05:21:57;-2.10;99.90
13610;DHT22;6876;50.788;4.940;2023-03-01T05:24:50;-2.00;99.90
13610;DHT22;6876;50.788;4.940;2023-03-01T05:27:39;-2.00;99.90
13610;DHT22;6876;50.788;4.940;2023-03-01T05:30:27;-2.00;99.90
13610;DHT22;6876;50.788;4.940;2023-03-01T05:33:14;-2.10;99.90
13610;DHT22;6876;50.788;4.940;2023-03-01T05:36:04;-2.10;99.90
13610;DHT22;6876;50.788;4.940;2023-03-01T05:38:51;-2.20;99.90
13610;DHT22;6876;50.788;4.940;2023-03-01T05:41:38;-2.20;99.90
13610;DHT22;6876;50.788;4.940;2023-03-01T05:44:28;-2.20;99.90
13610;DHT22;6876;50.788;4.940;2023-03-01T05:47:16;-2.10;99.90
13610;DHT22;6876;50.788;4.940;2023-03-01T05:50:03;-2.20;99.90
13610;DHT22;6876;50.788;4.940;2023-03-01T05:52:57;-2.20;99.90
13610;DHT22;6876;50.788;4.940;2023-03-01T05:55:45;-2.30;99.90
13610;DHT22;6876;50.788;4.940;2023-03-01T05:58:33;-2.30;99.90
13610;DHT22;6876;50.788;4.940;2023-03-01T06:01:20;-2.30;99.90
13610;DHT22;6876;50.788;4.940;2023-03-01T06:04:07;-2.40;99.90
13610;DHT22;6876;50.788;4.940;2023-03-01T06:06:55;-2.40;99.90
13610;DHT22;6876;50.788;4.940;2023-03-01T06:09:44;-2.40;99.90
13610;DHT22;6876;50.788;4.940;2023-03-01T06:12:31;-2.40;99.90
13610;DHT22;6876;50.788;4.940;2023-03-01T06:15:19;-2.40;99.90
13610;DHT22;6876;50.788;4.940;2023-03-01T06:18:06;-2.40;99.90
13610;DHT22;6876;50.788;4.940;2023-03-01T06:20:54;-2.40;99.90
13610;DHT22;6876;50.788;4.940;2023-03-01T06:23:41;-2.50;99.90
13610;DHT22;6876;50.788;4.940;2023-03-01T06:26:30;-2.50;99.90
13610;DHT22;6876;50.788;4.940;2023-03-01T06:29:18;-2.50;99.90
13610;DHT22;6876;50.788;4.940;2023-03-01T06:32:06;-2.50;99.90
13610;DHT22;6876;50.788;4.940;2023-03-01T06:34:53;-2.50;99.90
13610;DHT22;6876;50.788;4.940;2023-03-01T06:37:41;-2.50;99.90
13610;DHT22;6876;50.788;4.940;2023-03-01T06:40:30;-2.50;99.90
13610;DHT22;6876;50.788;4.940;2023-03-01T06:43:19;-2.40;99.90
13610;DHT22;6876;50.788;4.940;2023-03-01T06:46:06;-2.30;99.90
13610;DHT22;6876;50.788;4.940;2023-03-01T06:48:53;-2.20;99.90
13610;DHT22;6876;50.788;4.940;2023-03-01T06:51:41;-2.20;99.90
13610;DHT22;6876;50.788;4.940;2023-03-01T06:54:29;-2.00;99.90
13610;DHT22;6876;50.788;4.940;2023-03-01T06:57:17;-1.40;99.90
13610;DHT22;6876;50.788;4.940;2023-03-01T07:00:07;-0.70;99.90
13610;DHT22;6876;50.788;4.940;2023-03-01T07:02:55;0.20;99.90
13610;DHT22;6876;50.788;4.940;2023-03-01T07:05:44;1.00;99.90
13610;DHT22;6876;50.788;4.940;2023-03-01T07:08:32;1.10;99.90
13610;DHT22;6876;50.788;4.940;2023-03-01T07:11:19;1.40;99.90
13610;DHT22;6876;50.788;4.940;2023-03-01T07:14:06;1.40;99.90
13610;DHT22;6876;50.788;4.940;2023-03-01T07:16:55;1.50;99.90
13610;DHT22;6876;50.788;4.940;2023-03-01T07:19:42;1.40;99.90
13610;DHT22;6876;50.788;4.940;2023-03-01T07:22:30;1.10;99.90
13610;DHT22;6876;50.788;4.940;2023-03-01T07:25:18;0.50;99.90
13610;DHT22;6876;50.788;4.940;2023-03-01T07:28:05;0.00;99.90
13610;DHT22;6876;50.788;4.940;2023-03-01T07:30:53;-0.20;99.90
13610;DHT22;6876;50.788;4.940;2023-03-01T07:33:42;-0.40;99.90
13610;DHT22;6876;50.788;4.940;2023-03-01T07:36:29;-0.50;99.90
13610;DHT22;6876;50.788;4.940;2023-03-01T07:39:17;-0.60;99.90
13610;DHT22;6876;50.788;4.940;2023-03-01T07:42:04;-0.60;99.90
13610;DHT22;6876;50.788;4.940;2023-03-01T07:44:51;-0.60;99.90
13610;DHT22;6876;50.788;4.940;2023-03-01T07:47:38;-0.50;99.90
13610;DHT22;6876;50.788;4.940;2023-03-01T07:50:27;-0.50;99.90
13610;DHT22;6876;50.788;4.940;2023-03-01T07:53:14;-0.50;99.90
13610;DHT22;6876;50.788;4.940;2023-03-01T07:56:03;-0.40;99.90
13610;DHT22;6876;50.788;4.940;2023-03-01T07:58:51;-0.10;99.90
13610;DHT22;6876;50.788;4.940;2023-03-01T08:01:38;1.70;99.90
13610;DHT22;6876;50.788;4.940;2023-03-01T08:04:27;4.00;99.90
13610;DHT22;6876;50.788;4.940;2023-03-01T08:07:15;6.10;99.90
13610;DHT22;6876;50.788;4.940;2023-03-01T08:10:03;7.60;99.90
13610;DHT22;6876;50.788;4.940;2023-03-01T08:12:52;8.90;99.90
13610;DHT22;6876;50.788;4.940;2023-03-01T08:15:40;9.90;99.90
13610;DHT22;6876;50.788;4.940;2023-03-01T08:18:27;10.00;99.90
13610;DHT22;6876;50.788;4.940;2023-03-01T08:21:16;10.20;99.90
13610;DHT22;6876;50.788;4.940;2023-03-01T08:24:06;10.00;99.90
13610;DHT22;6876;50.788;4.940;2023-03-01T08:26:56;10.20;99.90
13610;DHT22;6876;50.788;4.940;2023-03-01T08:29:43;10.30;99.90
13610;DHT22;6876;50.788;4.940;2023-03-01T08:32:35;11.30;99.90
13610;DHT22;6876;50.788;4.940;2023-03-01T08:35:23;11.70;99.90
13610;DHT22;6876;50.788;4.940;2023-03-01T08:38:10;12.10;99.90
13610;DHT22;6876;50.788;4.940;2023-03-01T08:41:01;11.90;99.90
13610;DHT22;6876;50.788;4.940;2023-03-01T08:43:48;12.20;99.90
13610;DHT22;6876;50.788;4.940;2023-03-01T08:46:37;12.40;99.30
13610;DHT22;6876;50.788;4.940;2023-03-01T08:49:24;12.80;98.60
13610;DHT22;6876;50.788;4.940;2023-03-01T08:52:12;13.20;97.50
13610;DHT22;6876;50.788;4.940;2023-03-01T08:54:59;13.40;97.10
13610;DHT22;6876;50.788;4.940;2023-03-01T08:57:49;13.90;95.80
13610;DHT22;6876;50.788;4.940;2023-03-01T09:00:36;14.00;95.20
13610;DHT22;6876;50.788;4.940;2023-03-01T09:03:24;14.40;94.40
13610;DHT22;6876;50.788;4.940;2023-03-01T09:06:12;14.90;93.90
13610;DHT22;6876;50.788;4.940;2023-03-01T09:09:00;14.80;93.40
13610;DHT22;6876;50.788;4.940;2023-03-01T09:11:48;14.90;92.70
13610;DHT22;6876;50.788;4.940;2023-03-01T09:14:38;15.50;91.90
13610;DHT22;6876;50.788;4.940;2023-03-01T09:17:27;15.50;91.00
13610;DHT22;6876;50.788;4.940;2023-03-01T09:20:14;16.10;90.00
13610;DHT22;6876;50.788;4.940;2023-03-01T09:23:01;16.10;88.60
13610;DHT22;6876;50.788;4.940;2023-03-01T09:25:49;15.60;89.80
13610;DHT22;6876;50.788;4.940;2023-03-01T09:28:36;16.20;88.80
13610;DHT22;6876;50.788;4.940;2023-03-01T09:31:26;16.50;86.70
13610;DHT22;6876;50.788;4.940;2023-03-01T09:34:14;16.60;86.20
13610;DHT22;6876;50.788;4.940;2023-03-01T09:37:02;16.40;85.90
13610;DHT22;6876;50.788;4.940;2023-03-01T09:39:49;15.50;85.10
13610;DHT22;6876;50.788;4.940;2023-03-01T09:42:46;13.90;88.40
13610;DHT22;6876;50.788;4.940;2023-03-01T09:45:36;15.30;87.30
13610;DHT22;6876;50.788;4.940;2023-03-01T09:48:27;15.90;85.60
13610;DHT22;6876;50.788;4.940;2023-03-01T09:51:25;15.80;85.00
13610;DHT22;6876;50.788;4.940;2023-03-01T09:54:13;16.60;83.00
13610;DHT22;6876;50.788;4.940;2023-03-01T09:57:10;17.20;81.80
13610;DHT22;6876;50.788;4.940;2023-03-01T10:03:17;17.90;78.00
13610;DHT22;6876;50.788;4.940;2023-03-01T10:06:14;16.70;78.60
13610;DHT22;6876;50.788;4.940;2023-03-01T10:09:05;16.10;78.90
13610;DHT22;6876;50.788;4.940;2023-03-01T10:11:55;16.00;81.10
13610;DHT22;6876;50.788;4.940;2023-03-01T10:14:48;16.60;79.10
13610;DHT22;6876;50.788;4.940;2023-03-01T10:17:43;17.20;78.00
13610;DHT22;6876;50.788;4.940;2023-03-01T10:20:41;17.20;77.70
13610;DHT22;6876;50.788;4.940;2023-03-01T10:23:32;17.00;77.20
13610;DHT22;6876;50.788;4.940;2023-03-01T10:26:38;16.80;76.20
13610;DHT22;6876;50.788;4.940;2023-03-01T10:29:31;16.20;78.30
13610;DHT22;6876;50.788;4.940;2023-03-01T10:32:21;15.70;78.90
13610;DHT22;6876;50.788;4.940;2023-03-01T10:35:21;15.00;79.60
13610;DHT22;6876;50.788;4.940;2023-03-01T10:38:10;14.10;84.30
13610;DHT22;6876;50.788;4.940;2023-03-01T10:41:06;14.20;82.70
13610;DHT22;6876;50.788;4.940;2023-03-01T10:43:55;13.80;85.00
13610;DHT22;6876;50.788;4.940;2023-03-01T10:46:43;12.80;86.30
13610;DHT22;6876;50.788;4.940;2023-03-01T10:49:31;12.60;88.00
13610;DHT22;6876;50.788;4.940;2023-03-01T10:52:21;11.90;89.60
13610;DHT22;6876;50.788;4.940;2023-03-01T10:55:24;11.10;89.10
13610;DHT22;6876;50.788;4.940;2023-03-01T10:58:20;10.40;90.90
13610;DHT22;6876;50.788;4.940;2023-03-01T11:01:26;9.80;91.50
13610;DHT22;6876;50.788;4.940;2023-03-01T11:04:13;9.40;92.20
13610;DHT22;6876;50.788;4.940;2023-03-01T11:07:02;9.20;93.20
13610;DHT22;6876;50.788;4.940;2023-03-01T11:09:49;8.80;92.90
13610;DHT22;6876;50.788;4.940;2023-03-01T11:12:37;8.60;94.10
13610;DHT22;6876;50.788;4.940;2023-03-01T11:15:28;8.60;93.90
13610;DHT22;6876;50.788;4.940;2023-03-01T11:18:20;8.50;93.50
13610;DHT22;6876;50.788;4.940;2023-03-01T11:21:08;8.30;94.10
13610;DHT22;6876;50.788;4.940;2023-03-01T11:23:58;8.60;94.20
13610;DHT22;6876;50.788;4.940;2023-03-01T11:26:51;8.30;93.50
13610;DHT22;6876;50.788;4.940;2023-03-01T11:29:40;7.90;94.20
13610;DHT22;6876;50.788;4.940;2023-03-01T11:32:34;7.90;94.30
13610;DHT22;6876;50.788;4.940;2023-03-01T11:35:25;8.10;94.80
13610;DHT22;6876;50.788;4.940;2023-03-01T11:38:22;8.10;95.10
13610;DHT22;6876;50.788;4.940;2023-03-01T11:41:14;8.00;95.10
13610;DHT22;6876;50.788;4.940;2023-03-01T11:44:05;7.70;95.00
13610;DHT22;6876;50.788;4.940;2023-03-01T11:47:14;7.80;94.90
13610;DHT22;6876;50.788;4.940;2023-03-01T11:50:17;7.70;95.30
13610;DHT22;6876;50.788;4.940;2023-03-01T11:53:30;7.60;94.80
13610;DHT22;6876;50.788;4.940;2023-03-01T11:56:30;7.80;95.40
13610;DHT22;6876;50.788;4.940;2023-03-01T12:03:14;7.80;94.10
13610;DHT22;6876;50.788;4.940;2023-03-01T12:06:40;7.60;94.20
13610;DHT22;6876;50.788;4.940;2023-03-01T12:13:13;7.30;95.70
13610;DHT22;6876;50.788;4.940;2023-03-01T12:16:19;7.00;95.80
13610;DHT22;6876;50.788;4.940;2023-03-01T12:19:17;7.20;95.50
13610;DHT22;6876;50.788;4.940;2023-03-01T12:22:21;7.30;96.40
13610;DHT22;6876;50.788;4.940;2023-03-01T12:25:27;7.30;95.20
13610;DHT22;6876;50.788;4.940;2023-03-01T12:28:50;7.10;95.50
13610;DHT22;6876;50.788;4.940;2023-03-01T12:32:06;6.90;96.00
13610;DHT22;6876;50.788;4.940;2023-03-01T12:35:09;6.90;96.50
13610;DHT22;6876;50.788;4.940;2023-03-01T12:38:10;7.00;96.10
13610;DHT22;6876;50.788;4.940;2023-03-01T12:41:27;7.00;96.40
13610;DHT22;6876;50.788;4.940;2023-03-01T12:44:31;6.90;95.70
13610;DHT22;6876;50.788;4.940;2023-03-01T12:47:30;6.80;95.70
13610;DHT22;6876;50.788;4.940;2023-03-01T12:50:23;6.80;96.40
13610;DHT22;6876;50.788;4.940;2023-03-01T12:53:21;7.10;96.50
13610;DHT22;6876;50.788;4.940;2023-03-01T12:56:11;7.10;95.80
13610;DHT22;6876;50.788;4.940;2023-03-01T12:59:08;6.90;95.20
13610;DHT22;6876;50.788;4.940;2023-03-01T13:02:05;6.80;95.80
13610;DHT22;6876;50.788;4.940;2023-03-01T13:05:06;6.90;96.30
13610;DHT22;6876;50.788;4.940;2023-03-01T13:08:03;7.10;96.20
13610;DHT22;6876;50.788;4.940;2023-03-01T13:10:57;7.10;96.60
13610;DHT22;6876;50.788;4.940;2023-03-01T13:13:46;7.20;96.60
13610;DHT22;6876;50.788;4.940;2023-03-01T13:16:41;7.10;96.60
13610;DHT22;6876;50.788;4.940;2023-03-01T13:19:30;7.10;97.30
13610;DHT22;6876;50.788;4.940;2023-03-01T13:22:31;7.00;96.50
13610;DHT22;6876;50.788;4.940;2023-03-01T13:25:20;6.80;96.70
13610;DHT22;6876;50.788;4.940;2023-03-01T13:28:36;6.80;97.00
13610;DHT22;6876;50.788;4.940;2023-03-01T13:31:57;7.00;96.50
13610;DHT22;6876;50.788;4.940;2023-03-01T13:34:48;7.00;96.20
13610;DHT22;6876;50.788;4.940;2023-03-01T13:37:37;6.90;96.10
13610;DHT22;6876;50.788;4.940;2023-03-01T13:40:58;7.00;96.90
13610;DHT22;6876;50.788;4.940;2023-03-01T13:43:48;6.80;95.60
13610;DHT22;6876;50.788;4.940;2023-03-01T13:46:35;6.90;96.00
13610;DHT22;6876;50.788;4.940;2023-03-01T13:49:26;6.90;95.90
13610;DHT22;6876;50.788;4.940;2023-03-01T13:52:35;6.80;95.70
13610;DHT22;6876;50.788;4.940;2023-03-01T13:55:27;6.80;96.00
13610;DHT22;6876;50.788;4.940;2023-03-01T13:58:21;6.90;96.00
13610;DHT22;6876;50.788;4.940;2023-03-01T14:01:22;7.00;96.60
13610;DHT22;6876;50.788;4.940;2023-03-01T14:04:20;7.00;96.90
13610;DHT22;6876;50.788;4.940;2023-03-01T14:07:12;6.90;95.20
13610;DHT22;6876;50.788;4.940;2023-03-01T14:10:04;6.90;95.70
13610;DHT22;6876;50.788;4.940;2023-03-01T14:12:57;6.90;95.80
13610;DHT22;6876;50.788;4.940;2023-03-01T14:15:58;6.90;96.00
13610;DHT22;6876;50.788;4.940;2023-03-01T14:18:56;7.00;96.80
13610;DHT22;6876;50.788;4.940;2023-03-01T14:21:47;7.00;96.60
13610;DHT22;6876;50.788;4.940;2023-03-01T14:24:37;7.10;96.10
13610;DHT22;6876;50.788;4.940;2023-03-01T14:27:27;6.90;95.50
13610;DHT22;6876;50.788;4.940;2023-03-01T14:30:19;6.80;95.70
13610;DHT22;6876;50.788;4.940;2023-03-01T14:33:19;6.90;95.90
13610;DHT22;6876;50.788;4.940;2023-03-01T14:36:12;7.00;96.00
13610;DHT22;6876;50.788;4.940;2023-03-01T14:39:00;7.10;96.10
13610;DHT22;6876;50.788;4.940;2023-03-01T14:41:50;7.10;96.10
13610;DHT22;6876;50.788;4.940;2023-03-01T14:44:40;7.00;96.20
13610;DHT22;6876;50.788;4.940;2023-03-01T14:47:29;7.00;96.90
13610;DHT22;6876;50.788;4.940;2023-03-01T14:50:25;6.90;96.60
13610;DHT22;6876;50.788;4.940;2023-03-01T14:53:17;6.90;96.40
13610;DHT22;6876;50.788;4.940;2023-03-01T14:56:05;6.80;96.80
13610;DHT22;6876;50.788;4.940;2023-03-01T14:58:59;6.80;96.80
13610;DHT22;6876;50.788;4.940;2023-03-01T15:01:46;6.80;96.80
13610;DHT22;6876;50.788;4.940;2023-03-01T15:04:34;6.90;97.10
13610;DHT22;6876;50.788;4.940;2023-03-01T15:07:22;6.90;97.10
13610;DHT22;6876;50.788;4.940;2023-03-01T15:10:19;7.00;96.80
13610;DHT22;6876;50.788;4.940;2023-03-01T15:13:11;6.90;96.50
13610;DHT22;6876;50.788;4.940;2023-03-01T15:16:17;6.90;97.00
13610;DHT22;6876;50.788;4.940;2023-03-01T15:19:06;6.90;96.60
13610;DHT22;6876;50.788;4.940;2023-03-01T15:21:54;7.00;96.80
13610;DHT22;6876;50.788;4.940;2023-03-01T15:24:46;6.90;96.60
13610;DHT22;6876;50.788;4.940;2023-03-01T15:27:35;6.90;96.50
13610;DHT22;6876;50.788;4.940;2023-03-01T15:30:30;6.80;96.50
13610;DHT22;6876;50.788;4.940;2023-03-01T15:33:36;6.70;96.90
13610;DHT22;6876;50.788;4.940;2023-03-01T15:36:33;6.70;96.90
13610;DHT22;6876;50.788;4.940;2023-03-01T15:39:42;6.60;97.00
13610;DHT22;6876;50.788;4.940;2023-03-01T15:42:37;6.60;97.50
13610;DHT22;6876;50.788;4.940;2023-03-01T15:45:27;6.60;97.60
13610;DHT22;6876;50.788;4.940;2023-03-01T15:48:18;6.50;98.00
13610;DHT22;6876;50.788;4.940;2023-03-01T15:51:12;6.50;97.50
13610;DHT22;6876;50.788;4.940;2023-03-01T15:54:03;6.50;98.00
13610;DHT22;6876;50.788;4.940;2023-03-01T15:56:51;6.50;97.60
13610;DHT22;6876;50.788;4.940;2023-03-01T15:59:40;6.50;97.80
13610;DHT22;6876;50.788;4.940;2023-03-01T16:02:28;6.40;97.60
13610;DHT22;6876;50.788;4.940;2023-03-01T16:05:19;6.40;97.60
13610;DHT22;6876;50.788;4.940;2023-03-01T16:08:07;6.40;97.60
13610;DHT22;6876;50.788;4.940;2023-03-01T16:10:55;6.40;97.90
13610;DHT22;6876;50.788;4.940;2023-03-01T16:13:42;6.30;98.00
13610;DHT22;6876;50.788;4.940;2023-03-01T16:16:31;6.30;98.20
13610;DHT22;6876;50.788;4.940;2023-03-01T16:19:19;6.20;98.30
13610;DHT22;6876;50.788;4.940;2023-03-01T16:22:06;6.20;98.40
13610;DHT22;6876;50.788;4.940;2023-03-01T16:24:54;6.20;97.90
13610;DHT22;6876;50.788;4.940;2023-03-01T16:27:43;6.10;97.90
13610;DHT22;6876;50.788;4.940;2023-03-01T16:30:31;6.10;98.00
13610;DHT22;6876;50.788;4.940;2023-03-01T16:33:21;6.10;98.30
13610;DHT22;6876;50.788;4.940;2023-03-01T16:36:10;6.00;98.40
13610;DHT22;6876;50.788;4.940;2023-03-01T16:38:58;6.00;98.70
13610;DHT22;6876;50.788;4.940;2023-03-01T16:41:46;5.90;98.50
13610;DHT22;6876;50.788;4.940;2023-03-01T16:44:33;5.90;99.00
13610;DHT22;6876;50.788;4.940;2023-03-01T16:47:21;5.80;98.90
13610;DHT22;6876;50.788;4.940;2023-03-01T16:50:11;5.80;99.10
13610;DHT22;6876;50.788;4.940;2023-03-01T16:52:58;5.80;99.30
13610;DHT22;6876;50.788;4.940;2023-03-01T16:55:53;5.70;99.50
13610;DHT22;6876;50.788;4.940;2023-03-01T16:58:41;5.70;99.90
13610;DHT22;6876;50.788;4.940;2023-03-01T17:01:28;5.60;99.90
13610;DHT22;6876;50.788;4.940;2023-03-01T17:04:18;5.50;99.90
13610;DHT22;6876;50.788;4.940;2023-03-01T17:07:07;5.50;99.90
13610;DHT22;6876;50.788;4.940;2023-03-01T17:09:54;5.40;99.90
13610;DHT22;6876;50.788;4.940;2023-03-01T17:12:42;5.30;99.90
13610;DHT22;6876;50.788;4.940;2023-03-01T17:15:29;5.30;99.90
13610;DHT22;6876;50.788;4.940;2023-03-01T17:18:16;5.20;99.90
13610;DHT22;6876;50.788;4.940;2023-03-01T17:21:05;5.10;99.90
13610;DHT22;6876;50.788;4.940;2023-03-01T17:23:56;5.10;99.90
13610;DHT22;6876;50.788;4.940;2023-03-01T17:26:44;5.00;99.90
13610;DHT22;6876;50.788;4.940;2023-03-01T17:29:31;4.90;99.90
13610;DHT22;6876;50.788;4.940;2023-03-01T17:32:19;5.00;99.90
13610;DHT22;6876;50.788;4.940;2023-03-01T17:35:07;5.00;99.90
13610;DHT22;6876;50.788;4.940;2023-03-01T17:37:56;4.70;99.90
13610;DHT22;6876;50.788;4.940;2023-03-01T17:40:45;4.70;99.90
13610;DHT22;6876;50.788;4.940;2023-03-01T17:43:33;4.60;99.90
13610;DHT22;6876;50.788;4.940;2023-03-01T17:46:20;4.50;99.90
13610;DHT22;6876;50.788;4.940;2023-03-01T17:49:09;4.50;99.90
13610;DHT22;6876;50.788;4.940;2023-03-01T17:51:57;4.50;99.90
13610;DHT22;6876;50.788;4.940;2023-03-01T17:54:44;4.50;99.90
13610;DHT22;6876;50.788;4.940;2023-03-01T17:57:33;4.40;99.90
13610;DHT22;6876;50.788;4.940;2023-03-01T18:00:21;4.40;99.90
13610;DHT22;6876;50.788;4.940;2023-03-01T18:03:09;4.30;99.90
13610;DHT22;6876;50.788;4.940;2023-03-01T18:05:57;4.30;99.90
13610;DHT22;6876;50.788;4.940;2023-03-01T18:08:44;4.20;99.90
13610;DHT22;6876;50.788;4.940;2023-03-01T18:11:33;4.20;99.90
13610;DHT22;6876;50.788;4.940;2023-03-01T18:14:22;4.10;99.90
13610;DHT22;6876;50.788;4.940;2023-03-01T18:17:10;4.00;99.90
13610;DHT22;6876;50.788;4.940;2023-03-01T18:19:58;4.00;99.90
13610;DHT22;6876;50.788;4.940;2023-03-01T18:22:45;3.90;99.90
13610;DHT22;6876;50.788;4.940;2023-03-01T18:25:33;3.90;99.90
13610;DHT22;6876;50.788;4.940;2023-03-01T18:28:21;3.90;99.90
13610;DHT22;6876;50.788;4.940;2023-03-01T18:31:12;3.80;99.90
13610;DHT22;6876;50.788;4.940;2023-03-01T18:34:03;3.70;99.90